sensor_id;sensor_type;location;lat;lon;timestamp;pressure;altitude;pressure_sealevel;temperature;humidity
59435;BME280;45241;49.768;8.636;2023-05-07T00:00:12;100110.88;;;17.75;84.04
59435;BME280;45241;49.768;8.636;2023-05-07T00:02:40;100122.97;;;17.67;83.71
59435;BME280;45241;49.768;8.636;2023-05-07T00:05:06;100114.81;;;17.79;83.72
59435;BME280;45241;49.768;8.636;2023-05-07T00:07:32;100120.50;;;17.66;84.61
59435;BME280;45241;49.768;8.636;2023-05-07T00:09:57;100115.66;;;17.79;83.50
59435;BME280;45241;49.768;8.636;2023-05-07T00:12:23;100119.47;;;17.95;83.51
59435;BME280;45241;49.768;8.636;2023-05-07T00:14:48;100114.94;;;18.01;83.03
59435;BME280;45241;49.768;8.636;2023-05-07T00:17:13;100113.59;;;17.75;84.25
59435;BME280;45241;49.768;8.636;2023-05-07T00:19:39;100113.47;;;17.93;84.24
59435;BME280;45241;49.768;8.636;2023-05-07T00:22:04;100114.81;;;17.79;83.96
59435;BME280;45241;49.768;8.636;2023-05-07T00:24:29;100111.50;;;17.77;83.63
59435;BME280;45241;49.768;8.636;2023-05-07T00:26:55;100106.66;;;17.90;82.88
59435;BME280;45241;49.768;8.636;2023-05-07T00:29:20;100114.66;;;17.85;83.41
59435;BME280;45241;49.768;8.636;2023-05-07T00:31:45;100101.06;;;17.97;82.40
59435;BME280;45241;49.768;8.636;2023-05-07T00:34:11;100106.16;;;17.94;83.83
59435;BME280;45241;49.768;8.636;2023-05-07T00:36:36;100098.56;;;17.79;86.01
59435;BME280;45241;49.768;8.636;2023-05-07T00:39:02;100096.69;;;17.56;85.90
59435;BME280;45241;49.768;8.636;2023-05-07T00:41:29;100103.97;;;17.67;83.99
59435;BME280;45241;49.768;8.636;2023-05-07T00:43:55;100101.94;;;17.86;83.54
59435;BME280;45241;49.768;8.636;2023-05-07T00:46:22;100092.28;;;18.07;82.31
59435;BME280;45241;49.768;8.636;2023-05-07T00:48:48;100094.72;;;17.51;84.44
59435;BME280;45241;49.768;8.636;2023-05-07T00:51:15;100091.50;;;17.78;82.74
59435;BME280;45241;49.768;8.636;2023-05-07T00:53:40;100104.88;;;17.73;82.65
59435;BME280;45241;49.768;8.636;2023-05-07T00:56:06;100104.97;;;17.89;82.47
59435;BME280;45241;49.768;8.636;2023-05-07T00:58:33;100097.81;;;17.72;82.95
59435;BME280;45241;49.768;8.636;2023-05-07T01:00:58;100083.09;;;17.79;82.85
59435;BME280;45241;49.768;8.636;2023-05-07T01:03:24;100084.38;;;17.77;82.09
59435;BME280;45241;49.768;8.636;2023-05-07T01:05:50;100076.81;;;17.90;81.41
59435;BME280;45241;49.768;8.636;2023-05-07T01:08:17;100071.28;;;17.85;81.55
59435;BME280;45241;49.768;8.636;2023-05-07T01:10:43;100081.69;;;17.77;81.17
59435;BME280;45241;49.768;8.636;2023-05-07T01:13:09;100081.69;;;17.77;80.94
59435;BME280;45241;49.768;8.636;2023-05-07T01:15:36;100084.38;;;17.77;82.24
59435;BME280;45241;49.768;8.636;2023-05-07T01:18:01;100076.06;;;17.95;81.40
59435;BME280;45241;49.768;8.636;2023-05-07T01:20:27;100075.66;;;17.75;81.44
59435;BME280;45241;49.768;8.636;2023-05-07T01:22:53;100074.25;;;17.84;80.97
59435;BME280;45241;49.768;8.636;2023-05-07T01:25:18;100074.25;;;17.72;81.52
59435;BME280;45241;49.768;8.636;2023-05-07T01:27:43;100074.81;;;17.74;80.88
59435;BME280;45241;49.768;8.636;2023-05-07T01:30:09;100075.34;;;17.59;81.75
59435;BME280;45241;49.768;8.636;2023-05-07T01:35:10;100084.00;;;17.85;80.08
59435;BME280;45241;49.768;8.636;2023-05-07T01:37:37;100080.69;;;17.54;82.58
59435;BME280;45241;49.768;8.636;2023-05-07T01:40:03;100082.38;;;17.32;83.23
59435;BME280;45241;49.768;8.636;2023-05-07T01:42:29;100074.50;;;17.30;84.22
59435;BME280;45241;49.768;8.636;2023-05-07T01:44:54;100071.31;;;17.22;84.36
59435;BME280;45241;49.768;8.636;2023-05-07T01:47:20;100071.09;;;17.23;84.58
59435;BME280;45241;49.768;8.636;2023-05-07T01:49:46;100077.38;;;17.12;85.80
59435;BME280;45241;49.768;8.636;2023-05-07T01:52:12;100076.44;;;16.95;86.69
59435;BME280;45241;49.768;8.636;2023-05-07T01:54:38;100076.56;;;16.88;87.51
59435;BME280;45241;49.768;8.636;2023-05-07T01:57:03;100073.84;;;17.00;87.21
59435;BME280;45241;49.768;8.636;2023-05-07T01:59:29;100077.00;;;16.97;87.71
59435;BME280;45241;49.768;8.636;2023-05-07T02:01:54;100069.84;;;16.79;88.17
59435;BME280;45241;49.768;8.636;2023-05-07T02:04:19;100074.06;;;16.63;88.27
59435;BME280;45241;49.768;8.636;2023-05-07T02:06:45;100072.91;;;16.71;88.18
59435;BME280;45241;49.768;8.636;2023-05-07T02:09:10;100073.16;;;16.81;88.04
59435;BME280;45241;49.768;8.636;2023-05-07T02:11:36;100076.28;;;16.43;89.73
59435;BME280;45241;49.768;8.636;2023-05-07T02:14:01;100076.28;;;16.55;88.92
59435;BME280;45241;49.768;8.636;2023-05-07T02:16:26;100064.28;;;16.51;88.24
59435;BME280;45241;49.768;8.636;2023-05-07T02:18:52;100066.94;;;16.15;92.88
59435;BME280;45241;49.768;8.636;2023-05-07T02:21:17;100069.06;;;16.25;91.74
59435;BME280;45241;49.768;8.636;2023-05-07T02:23:42;100065.53;;;16.13;92.43
59435;BME280;45241;49.768;8.636;2023-05-07T02:26:08;100063.31;;;16.45;89.24
59435;BME280;45241;49.768;8.636;2023-05-07T02:28:33;100063.94;;;16.47;88.91
59435;BME280;45241;49.768;8.636;2023-05-07T02:31:02;100063.09;;;16.35;89.28
59435;BME280;45241;49.768;8.636;2023-05-07T02:33:28;100064.72;;;16.24;90.35
59435;BME280;45241;49.768;8.636;2023-05-07T02:35:53;100072.44;;;16.09;91.45
59435;BME280;45241;49.768;8.636;2023-05-07T02:38:18;100074.09;;;16.10;91.25
59435;BME280;45241;49.768;8.636;2023-05-07T02:40:44;100067.25;;;15.96;92.50
59435;BME280;45241;49.768;8.636;2023-05-07T02:43:09;100078.38;;;15.88;92.53
59435;BME280;45241;49.768;8.636;2023-05-07T02:45:35;100078.13;;;15.59;96.02
59435;BME280;45241;49.768;8.636;2023-05-07T02:48:01;100083.13;;;15.74;94.86
59435;BME280;45241;49.768;8.636;2023-05-07T02:50:26;100083.97;;;15.74;93.17
59435;BME280;45241;49.768;8.636;2023-05-07T02:52:52;100080.31;;;15.80;94.31
59435;BME280;45241;49.768;8.636;2023-05-07T02:55:17;100074.66;;;16.00;93.19
59435;BME280;45241;49.768;8.636;2023-05-07T02:57:42;100083.13;;;16.04;92.68
59435;BME280;45241;49.768;8.636;2023-05-07T03:00:16;100077.78;;;15.85;92.56
59435;BME280;45241;49.768;8.636;2023-05-07T03:02:42;100074.94;;;16.10;92.47
59435;BME280;45241;49.768;8.636;2023-05-07T03:05:07;100075.84;;;15.74;93.84
59435;BME280;45241;49.768;8.636;2023-05-07T03:07:35;100073.81;;;16.00;91.95
59435;BME280;45241;49.768;8.636;2023-05-07T03:10:00;100073.22;;;15.68;94.20
59435;BME280;45241;49.768;8.636;2023-05-07T03:12:25;100078.72;;;15.61;94.63
59435;BME280;45241;49.768;8.636;2023-05-07T03:14:51;100079.44;;;15.87;93.15
59435;BME280;45241;49.768;8.636;2023-05-07T03:17:16;100077.03;;;15.78;93.93
59435;BME280;45241;49.768;8.636;2023-05-07T03:19:41;100080.06;;;15.70;94.91
59435;BME280;45241;49.768;8.636;2023-05-07T03:22:07;100069.97;;;15.77;93.84
59435;BME280;45241;49.768;8.636;2023-05-07T03:24:32;100071.22;;;15.63;95.69
59435;BME280;45241;49.768;8.636;2023-05-07T03:26:57;100063.81;;;15.22;98.04
59435;BME280;45241;49.768;8.636;2023-05-07T03:29:23;100064.66;;;15.52;95.98
59435;BME280;45241;49.768;8.636;2023-05-07T03:31:48;100059.69;;;15.56;95.21
59435;BME280;45241;49.768;8.636;2023-05-07T03:34:14;100060.09;;;15.71;93.62
59435;BME280;45241;49.768;8.636;2023-05-07T03:36:39;100052.31;;;15.63;94.99
59435;BME280;45241;49.768;8.636;2023-05-07T03:39:05;100051.53;;;15.74;94.35
59435;BME280;45241;49.768;8.636;2023-05-07T03:41:30;100052.97;;;15.89;92.54
59435;BME280;45241;49.768;8.636;2023-05-07T03:43:55;100035.41;;;16.09;89.09
59435;BME280;45241;49.768;8.636;2023-05-07T03:46:21;100045.00;;;15.94;90.53
59435;BME280;45241;49.768;8.636;2023-05-07T03:48:46;100043.28;;;16.11;87.76
59435;BME280;45241;49.768;8.636;2023-05-07T03:51:11;100045.44;;;16.32;85.83
59435;BME280;45241;49.768;8.636;2023-05-07T03:53:37;100032.34;;;16.18;85.72
59435;BME280;45241;49.768;8.636;2023-05-07T03:56:02;100042.63;;;16.27;87.16
59435;BME280;45241;49.768;8.636;2023-05-07T03:58:27;100037.00;;;16.52;83.92
59435;BME280;45241;49.768;8.636;2023-05-07T04:00:53;100049.94;;;16.62;83.05
59435;BME280;45241;49.768;8.636;2023-05-07T04:03:18;100053.09;;;16.35;86.61
59435;BME280;45241;49.768;8.636;2023-05-07T04:05:43;100053.78;;;16.31;86.72
59435;BME280;45241;49.768;8.636;2023-05-07T04:08:09;100056.50;;;16.42;87.16
59435;BME280;45241;49.768;8.636;2023-05-07T04:10:34;100054.75;;;16.36;87.18
59435;BME280;45241;49.768;8.636;2023-05-07T04:12:59;100057.22;;;16.38;87.87
59435;BME280;45241;49.768;8.636;2023-05-07T04:15:25;100067.25;;;16.61;84.50
59435;BME280;45241;49.768;8.636;2023-05-07T04:17:50;100061.81;;;16.49;84.01
59435;BME280;45241;49.768;8.636;2023-05-07T04:20:16;100062.16;;;16.53;84.13
59435;BME280;45241;49.768;8.636;2023-05-07T04:22:42;100063.72;;;16.49;85.73
59435;BME280;45241;49.768;8.636;2023-05-07T04:25:08;100063.13;;;16.47;85.36
59435;BME280;45241;49.768;8.636;2023-05-07T04:27:36;100068.16;;;16.43;87.61
59435;BME280;45241;49.768;8.636;2023-05-07T04:30:03;100072.66;;;16.49;87.18
59435;BME280;45241;49.768;8.636;2023-05-07T04:32:29;100075.75;;;16.76;85.72
59435;BME280;45241;49.768;8.636;2023-05-07T04:34:55;100076.06;;;16.68;89.25
59435;BME280;45241;49.768;8.636;2023-05-07T04:37:21;100079.28;;;16.88;82.98
59435;BME280;45241;49.768;8.636;2023-05-07T04:39:47;100083.38;;;16.91;86.90
59435;BME280;45241;49.768;8.636;2023-05-07T04:42:16;100079.53;;;16.87;86.97
59435;BME280;45241;49.768;8.636;2023-05-07T04:44:41;100075.69;;;17.11;82.16
59435;BME280;45241;49.768;8.636;2023-05-07T04:47:06;100079.09;;;16.36;92.02
59435;BME280;45241;49.768;8.636;2023-05-07T04:49:32;100076.81;;;16.75;91.16
59435;BME280;45241;49.768;8.636;2023-05-07T04:51:57;100082.31;;;16.80;86.25
59435;BME280;45241;49.768;8.636;2023-05-07T04:54:22;100085.13;;;16.97;84.86
59435;BME280;45241;49.768;8.636;2023-05-07T04:56:47;100083.81;;;17.23;79.49
59435;BME280;45241;49.768;8.636;2023-05-07T04:59:13;100086.53;;;17.11;85.74
59435;BME280;45241;49.768;8.636;2023-05-07T05:01:38;100089.72;;;17.20;81.26
59435;BME280;45241;49.768;8.636;2023-05-07T05:04:03;100089.84;;;17.13;87.18
59435;BME280;45241;49.768;8.636;2023-05-07T05:06:29;100094.78;;;17.16;84.23
59435;BME280;45241;49.768;8.636;2023-05-07T05:08:54;100096.91;;;17.26;81.28
59435;BME280;45241;49.768;8.636;2023-05-07T05:11:20;100098.97;;;17.36;83.72
59435;BME280;45241;49.768;8.636;2023-05-07T05:13:46;100093.66;;;17.52;80.02
59435;BME280;45241;49.768;8.636;2023-05-07T05:16:14;100099.22;;;17.34;84.10
59435;BME280;45241;49.768;8.636;2023-05-07T05:18:39;100096.41;;;17.29;82.98
59435;BME280;45241;49.768;8.636;2023-05-07T05:21:05;100099.59;;;17.26;87.96
59435;BME280;45241;49.768;8.636;2023-05-07T05:23:30;100101.00;;;17.40;85.41
59435;BME280;45241;49.768;8.636;2023-05-07T05:25:56;100099.53;;;17.49;81.49
59435;BME280;45241;49.768;8.636;2023-05-07T05:28:25;100107.50;;;17.68;81.15
59435;BME280;45241;49.768;8.636;2023-05-07T05:30:50;100106.88;;;17.37;79.73
59435;BME280;45241;49.768;8.636;2023-05-07T05:33:15;100100.84;;;17.47;80.88
59435;BME280;45241;49.768;8.636;2023-05-07T05:35:41;100109.59;;;18.17;75.78
59435;BME280;45241;49.768;8.636;2023-05-07T05:38:07;100110.84;;;17.98;74.57
59435;BME280;45241;49.768;8.636;2023-05-07T05:40:32;100108.25;;;18.03;77.11
59435;BME280;45241;49.768;8.636;2023-05-07T05:42:58;100111.47;;;17.88;76.95
59435;BME280;45241;49.768;8.636;2023-05-07T05:45:24;100105.94;;;18.29;75.66
59435;BME280;45241;49.768;8.636;2023-05-07T05:47:49;100101.56;;;18.11;75.34
59435;BME280;45241;49.768;8.636;2023-05-07T05:50:14;100103.09;;;18.18;77.14
59435;BME280;45241;49.768;8.636;2023-05-07T05:52:40;100114.50;;;18.04;76.77
59435;BME280;45241;49.768;8.636;2023-05-07T05:55:06;100110.34;;;18.30;74.40
59435;BME280;45241;49.768;8.636;2023-05-07T05:57:31;100112.38;;;18.23;76.44
59435;BME280;45241;49.768;8.636;2023-05-07T05:59:57;100110.91;;;18.32;75.55
59435;BME280;45241;49.768;8.636;2023-05-07T06:02:22;100121.69;;;18.60;75.39
59435;BME280;45241;49.768;8.636;2023-05-07T06:04:47;100119.06;;;18.65;75.01
59435;BME280;45241;49.768;8.636;2023-05-07T06:07:13;100127.56;;;18.69;76.56
59435;BME280;45241;49.768;8.636;2023-05-07T06:09:38;100126.44;;;18.82;77.75
59435;BME280;45241;49.768;8.636;2023-05-07T06:12:03;100127.81;;;18.84;82.11
59435;BME280;45241;49.768;8.636;2023-05-07T06:14:29;100120.69;;;18.66;80.57
59435;BME280;45241;49.768;8.636;2023-05-07T06:16:54;100127.38;;;18.92;81.47
59435;BME280;45241;49.768;8.636;2023-05-07T06:19:19;100120.81;;;18.71;84.80
59435;BME280;45241;49.768;8.636;2023-05-07T06:21:48;100124.47;;;18.32;85.41
59435;BME280;45241;49.768;8.636;2023-05-07T06:24:13;100120.63;;;18.44;84.97
59435;BME280;45241;49.768;8.636;2023-05-07T06:26:39;100127.53;;;18.52;86.84
59435;BME280;45241;49.768;8.636;2023-05-07T06:29:05;100123.56;;;18.26;88.00
59435;BME280;45241;49.768;8.636;2023-05-07T06:31:30;100133.34;;;18.27;88.59
59435;BME280;45241;49.768;8.636;2023-05-07T06:33:57;100138.25;;;18.13;85.81
59435;BME280;45241;49.768;8.636;2023-05-07T06:36:22;100127.00;;;18.22;85.65
59435;BME280;45241;49.768;8.636;2023-05-07T06:38:47;100128.91;;;18.38;89.08
59435;BME280;45241;49.768;8.636;2023-05-07T06:41:13;100129.03;;;18.43;85.79
59435;BME280;45241;49.768;8.636;2023-05-07T06:43:38;100135.03;;;18.62;90.00
59435;BME280;45241;49.768;8.636;2023-05-07T06:46:03;100136.16;;;18.49;89.68
59435;BME280;45241;49.768;8.636;2023-05-07T06:48:29;100138.38;;;18.52;88.24
59435;BME280;45241;49.768;8.636;2023-05-07T06:50:54;100141.84;;;18.64;85.83
59435;BME280;45241;49.768;8.636;2023-05-07T06:53:20;100139.63;;;18.61;85.68
59435;BME280;45241;49.768;8.636;2023-05-07T06:55:46;100147.56;;;18.79;87.50
59435;BME280;45241;49.768;8.636;2023-05-07T06:58:11;100143.59;;;19.04;82.61
59435;BME280;45241;49.768;8.636;2023-05-07T07:00:36;100145.66;;;19.14;83.42
59435;BME280;45241;49.768;8.636;2023-05-07T07:03:02;100139.59;;;19.28;84.57
59435;BME280;45241;49.768;8.636;2023-05-07T07:05:27;100143.59;;;19.21;84.63
59435;BME280;45241;49.768;8.636;2023-05-07T07:07:52;100135.44;;;19.21;84.56
59435;BME280;45241;49.768;8.636;2023-05-07T07:10:19;100137.50;;;19.14;86.79
59435;BME280;45241;49.768;8.636;2023-05-07T07:12:45;100136.19;;;18.99;84.42
59435;BME280;45241;49.768;8.636;2023-05-07T07:15:10;100136.53;;;19.42;79.85
59435;BME280;45241;49.768;8.636;2023-05-07T07:17:36;100135.25;;;19.27;77.32
59435;BME280;45241;49.768;8.636;2023-05-07T07:20:01;100147.84;;;19.33;73.24
59435;BME280;45241;49.768;8.636;2023-05-07T07:22:27;100143.84;;;19.41;73.13
59435;BME280;45241;49.768;8.636;2023-05-07T07:24:53;100142.06;;;19.30;73.72
59435;BME280;45241;49.768;8.636;2023-05-07T07:27:18;100143.50;;;19.16;73.80
59435;BME280;45241;49.768;8.636;2023-05-07T07:29:43;100149.84;;;19.43;75.10
59435;BME280;45241;49.768;8.636;2023-05-07T07:32:09;100152.56;;;19.04;76.29
59435;BME280;45241;49.768;8.636;2023-05-07T07:34:34;100152.00;;;19.41;75.26
59435;BME280;45241;49.768;8.636;2023-05-07T07:36:59;100149.56;;;19.61;75.53
59435;BME280;45241;49.768;8.636;2023-05-07T07:39:30;100148.03;;;19.71;73.67
59435;BME280;45241;49.768;8.636;2023-05-07T07:41:56;100155.84;;;19.62;75.09
59435;BME280;45241;49.768;8.636;2023-05-07T07:44:21;100152.72;;;19.53;73.89
59435;BME280;45241;49.768;8.636;2023-05-07T07:46:46;100159.59;;;19.78;74.87
59435;BME280;45241;49.768;8.636;2023-05-07T07:49:11;100152.53;;;19.60;72.71
59435;BME280;45241;49.768;8.636;2023-05-07T07:51:37;100159.38;;;19.84;73.06
59435;BME280;45241;49.768;8.636;2023-05-07T07:54:02;100160.09;;;19.58;72.92
59435;BME280;45241;49.768;8.636;2023-05-07T07:56:28;100156.03;;;19.77;73.53
59435;BME280;45241;49.768;8.636;2023-05-07T07:58:54;100161.63;;;19.71;70.85
59435;BME280;45241;49.768;8.636;2023-05-07T08:01:19;100160.03;;;19.91;71.42
59435;BME280;45241;49.768;8.636;2023-05-07T08:03:45;100171.69;;;19.87;71.84
59435;BME280;45241;49.768;8.636;2023-05-07T08:06:10;100168.06;;;19.81;72.42
59435;BME280;45241;49.768;8.636;2023-05-07T08:08:36;100166.09;;;19.77;72.08
59435;BME280;45241;49.768;8.636;2023-05-07T08:11:01;100168.72;;;19.72;71.56
59435;BME280;45241;49.768;8.636;2023-05-07T08:13:26;100163.91;;;19.74;73.68
59435;BME280;45241;49.768;8.636;2023-05-07T08:15:52;100168.13;;;19.86;76.06
59435;BME280;45241;49.768;8.636;2023-05-07T08:18:17;100169.88;;;19.98;75.01
59435;BME280;45241;49.768;8.636;2023-05-07T08:20:42;100166.16;;;20.04;70.68
59435;BME280;45241;49.768;8.636;2023-05-07T08:23:08;100174.06;;;19.83;74.11
59435;BME280;45241;49.768;8.636;2023-05-07T08:25:34;100170.03;;;19.86;75.55
59435;BME280;45241;49.768;8.636;2023-05-07T08:27:59;100169.66;;;19.77;71.14
59435;BME280;45241;49.768;8.636;2023-05-07T08:30:25;100167.75;;;19.78;72.78
59435;BME280;45241;49.768;8.636;2023-05-07T08:32:50;100169.13;;;20.02;70.60
59435;BME280;45241;49.768;8.636;2023-05-07T08:35:15;100166.09;;;19.99;71.18
59435;BME280;45241;49.768;8.636;2023-05-07T08:37:41;100169.22;;;19.68;72.29
59435;BME280;45241;49.768;8.636;2023-05-07T08:40:06;100182.34;;;19.93;72.43
59435;BME280;45241;49.768;8.636;2023-05-07T08:42:35;100171.53;;;19.99;72.22
59435;BME280;45241;49.768;8.636;2023-05-07T08:45:02;100178.88;;;19.76;72.99
59435;BME280;45241;49.768;8.636;2023-05-07T08:47:34;100174.59;;;19.63;72.71
59435;BME280;45241;49.768;8.636;2023-05-07T08:50:05;100182.00;;;19.68;72.58
59435;BME280;45241;49.768;8.636;2023-05-07T08:52:31;100176.53;;;19.85;71.61
59435;BME280;45241;49.768;8.636;2023-05-07T08:54:57;100176.72;;;20.00;71.83
59435;BME280;45241;49.768;8.636;2023-05-07T08:57:23;100173.78;;;20.07;71.90
59435;BME280;45241;49.768;8.636;2023-05-07T08:59:49;100182.03;;;20.12;71.90
59435;BME280;45241;49.768;8.636;2023-05-07T09:02:15;100187.03;;;19.98;70.72
59435;BME280;45241;49.768;8.636;2023-05-07T09:04:41;100175.38;;;20.03;71.48
59435;BME280;45241;49.768;8.636;2023-05-07T09:07:07;100181.78;;;20.40;70.98
59435;BME280;45241;49.768;8.636;2023-05-07T09:09:33;100182.91;;;20.44;70.63
59435;BME280;45241;49.768;8.636;2023-05-07T09:11:59;100183.38;;;20.63;70.68
59435;BME280;45241;49.768;8.636;2023-05-07T09:14:25;100181.47;;;20.64;68.82
59435;BME280;45241;49.768;8.636;2023-05-07T09:16:52;100178.41;;;20.87;69.20
59435;BME280;45241;49.768;8.636;2023-05-07T09:19:25;100188.66;;;20.75;68.80
59435;BME280;45241;49.768;8.636;2023-05-07T09:22:01;100185.94;;;21.07;69.64
59435;BME280;45241;49.768;8.636;2023-05-07T09:24:27;100185.22;;;21.22;69.37
59435;BME280;45241;49.768;8.636;2023-05-07T09:26:57;100184.69;;;21.25;67.21
59435;BME280;45241;49.768;8.636;2023-05-07T09:29:22;100185.75;;;21.19;68.65
59435;BME280;45241;49.768;8.636;2023-05-07T09:31:48;100184.94;;;21.18;67.43
59435;BME280;45241;49.768;8.636;2023-05-07T09:34:13;100184.94;;;21.23;67.00
59435;BME280;45241;49.768;8.636;2023-05-07T09:36:38;100175.47;;;21.36;67.24
59435;BME280;45241;49.768;8.636;2023-05-07T09:39:04;100184.53;;;21.41;69.26
59435;BME280;45241;49.768;8.636;2023-05-07T09:41:32;100184.38;;;21.58;69.25
59435;BME280;45241;49.768;8.636;2023-05-07T09:43:57;100191.53;;;21.69;66.70
59435;BME280;45241;49.768;8.636;2023-05-07T09:46:28;100189.84;;;21.63;67.64
59435;BME280;45241;49.768;8.636;2023-05-07T09:48:57;100190.41;;;21.65;67.55
59435;BME280;45241;49.768;8.636;2023-05-07T09:51:30;100181.28;;;21.45;68.72
59435;BME280;45241;49.768;8.636;2023-05-07T09:53:59;100181.66;;;21.58;68.39
59435;BME280;45241;49.768;8.636;2023-05-07T09:56:29;100179.38;;;21.50;68.86
59435;BME280;45241;49.768;8.636;2023-05-07T09:58:56;100176.25;;;21.74;69.64
59435;BME280;45241;49.768;8.636;2023-05-07T10:01:23;100173.91;;;21.97;68.67
59435;BME280;45241;49.768;8.636;2023-05-07T10:03:51;100176.59;;;21.87;67.49
59435;BME280;45241;49.768;8.636;2023-05-07T10:06:19;100177.78;;;22.12;67.42
59435;BME280;45241;49.768;8.636;2023-05-07T10:08:45;100168.22;;;22.14;67.48
59435;BME280;45241;49.768;8.636;2023-05-07T10:11:11;100168.75;;;22.16;67.05
59435;BME280;45241;49.768;8.636;2023-05-07T10:13:37;100170.66;;;22.16;67.53
59435;BME280;45241;49.768;8.636;2023-05-07T10:16:04;100171.19;;;21.97;67.45
59435;BME280;45241;49.768;8.636;2023-05-07T10:18:33;100169.56;;;22.07;66.93
59435;BME280;45241;49.768;8.636;2023-05-07T10:21:04;100167.91;;;22.06;67.17
59435;BME280;45241;49.768;8.636;2023-05-07T10:23:32;100173.03;;;21.87;66.74
59435;BME280;45241;49.768;8.636;2023-05-07T10:26:00;100157.81;;;22.06;67.50
59435;BME280;45241;49.768;8.636;2023-05-07T10:28:27;100166.28;;;22.05;68.23
59435;BME280;45241;49.768;8.636;2023-05-07T10:31:19;100158.94;;;22.10;69.56
59435;BME280;45241;49.768;8.636;2023-05-07T10:33:51;100165.22;;;22.16;68.23
59435;BME280;45241;49.768;8.636;2023-05-07T10:36:18;100153.22;;;22.22;67.60
59435;BME280;45241;49.768;8.636;2023-05-07T10:38:44;100158.69;;;22.27;66.63
59435;BME280;45241;49.768;8.636;2023-05-07T10:41:11;100162.28;;;22.43;66.63
59435;BME280;45241;49.768;8.636;2023-05-07T10:43:45;100160.16;;;22.75;66.42
59435;BME280;45241;49.768;8.636;2023-05-07T10:46:15;100168.84;;;22.57;64.71
59435;BME280;45241;49.768;8.636;2023-05-07T10:51:25;100159.03;;;22.51;63.71
59435;BME280;45241;49.768;8.636;2023-05-07T10:56:35;100161.75;;;22.56;63.66
59435;BME280;45241;49.768;8.636;2023-05-07T11:01:50;100153.56;;;22.92;63.63
59435;BME280;45241;49.768;8.636;2023-05-07T11:04:16;100150.28;;;23.20;63.75
59435;BME280;45241;49.768;8.636;2023-05-07T11:15:12;100141.34;;;23.79;60.39
59435;BME280;45241;49.768;8.636;2023-05-07T11:17:57;100134.88;;;24.14;59.69
59435;BME280;45241;49.768;8.636;2023-05-07T11:25:59;100143.06;;;24.19;60.57
59435;BME280;45241;49.768;8.636;2023-05-07T11:28:27;100141.84;;;23.91;60.32
59435;BME280;45241;49.768;8.636;2023-05-07T11:30:53;100134.25;;;23.73;60.31
59435;BME280;45241;49.768;8.636;2023-05-07T11:33:18;100134.16;;;23.98;58.62
59435;BME280;45241;49.768;8.636;2023-05-07T11:35:44;100126.03;;;24.27;57.97
59435;BME280;45241;49.768;8.636;2023-05-07T11:38:11;100127.59;;;24.39;59.57
59435;BME280;45241;49.768;8.636;2023-05-07T11:40:58;100130.56;;;24.47;59.23
59435;BME280;45241;49.768;8.636;2023-05-07T11:43:26;100130.00;;;24.84;58.69
59435;BME280;45241;49.768;8.636;2023-05-07T11:45:51;100131.78;;;24.99;58.28
59435;BME280;45241;49.768;8.636;2023-05-07T11:48:16;100129.03;;;24.99;56.91
59435;BME280;45241;49.768;8.636;2023-05-07T11:51:03;100126.66;;;25.16;57.04
59435;BME280;45241;49.768;8.636;2023-05-07T11:53:41;100111.84;;;25.17;57.69
59435;BME280;45241;49.768;8.636;2023-05-07T11:56:08;100115.16;;;25.14;54.79
59435;BME280;45241;49.768;8.636;2023-05-07T11:58:34;100111.22;;;25.26;55.52
59435;BME280;45241;49.768;8.636;2023-05-07T12:00:59;100110.94;;;25.51;54.39
59435;BME280;45241;49.768;8.636;2023-05-07T12:03:25;100120.72;;;25.81;55.22
59435;BME280;45241;49.768;8.636;2023-05-07T12:05:50;100117.47;;;25.55;54.69
59435;BME280;45241;49.768;8.636;2023-05-07T12:08:16;100118.00;;;25.57;54.17
59435;BME280;45241;49.768;8.636;2023-05-07T12:10:43;100110.41;;;25.49;54.77
59435;BME280;45241;49.768;8.636;2023-05-07T12:13:18;100118.22;;;25.85;55.38
59435;BME280;45241;49.768;8.636;2023-05-07T12:15:44;100107.31;;;26.17;54.02
59435;BME280;45241;49.768;8.636;2023-05-07T12:18:12;100115.56;;;26.17;54.22
59435;BME280;45241;49.768;8.636;2023-05-07T12:20:38;100122.50;;;26.09;53.36
59435;BME280;45241;49.768;8.636;2023-05-07T12:23:04;100116.72;;;25.73;53.45
59435;BME280;45241;49.768;8.636;2023-05-07T12:25:31;100113.97;;;25.49;54.24
59435;BME280;45241;49.768;8.636;2023-05-07T12:27:57;100109.34;;;25.69;54.59
59435;BME280;45241;49.768;8.636;2023-05-07T12:30:24;100100.53;;;25.72;54.28
59435;BME280;45241;49.768;8.636;2023-05-07T12:32:53;100102.06;;;25.59;54.61
59435;BME280;45241;49.768;8.636;2023-05-07T12:35:32;100108.94;;;25.57;55.12
59435;BME280;45241;49.768;8.636;2023-05-07T12:37:59;100101.22;;;25.35;55.50
59435;BME280;45241;49.768;8.636;2023-05-07T12:43:01;100101.78;;;25.32;54.37
59435;BME280;45241;49.768;8.636;2023-05-07T12:45:27;100106.38;;;25.41;53.54
59435;BME280;45241;49.768;8.636;2023-05-07T12:47:52;100101.06;;;25.93;54.75
59435;BME280;45241;49.768;8.636;2023-05-07T12:50:17;100094.41;;;26.18;51.59
59435;BME280;45241;49.768;8.636;2023-05-07T12:52:45;100097.19;;;25.94;53.54
59435;BME280;45241;49.768;8.636;2023-05-07T12:55:13;100087.91;;;26.08;51.37
59435;BME280;45241;49.768;8.636;2023-05-07T12:57:42;100079.63;;;26.65;51.69
59435;BME280;45241;49.768;8.636;2023-05-07T13:00:08;100070.47;;;26.69;50.39
59435;BME280;45241;49.768;8.636;2023-05-07T13:02:37;100073.19;;;26.56;50.30
59435;BME280;45241;49.768;8.636;2023-05-07T13:05:03;100074.34;;;26.17;52.35
59435;BME280;45241;49.768;8.636;2023-05-07T13:07:29;100075.16;;;26.69;52.26
59435;BME280;45241;49.768;8.636;2023-05-07T13:09:54;100076.13;;;26.27;49.04
59435;BME280;45241;49.768;8.636;2023-05-07T13:12:19;100071.44;;;26.08;50.69